Flat Rock, Ohio
Current Conditions -  °F | °C
As of 9:33 PM on Thursday 20 Nov 2014 (Local Time) from KPCW Reporting Station
Overcast Overcast  
Wind Chill: 12°   Ceiling: 7000
Heat Index: 25°   Visibility: 10mi
Dew Point: 16°   Wind: 15mph
Humidity: 69%   Direction: 280°W
Pressure: 30.13"   Gusts: NA
Location:  41.24°N, 82.86°W
Report Text: KPCW 210233Z AUTO 28013KT 10SM FEW045 SCT060 OVC070 M04/M09 A3013 RMK AO2
Loading
Personal Weather Stations






























Interactive Weather Map New forecast layout! Learn more

10-Day Weather Forecast

Advertisements
Track Severe Weather on mobile